Asheville Regional Airport
KAVL : now visible

Airfield :











YOU CAN JOIN US ON...

 
LOGIN :

Register | Disclaimer

   EN    FR    IT 

 









Legend :    VFR   Marginal VFR   IFR   Intensive IFR   Very Intensive IFR
Visi :
Ceiling :
>= 8 km
>= 3000ft
5 to 8 km
1000 to 3000 ft
1500m to 5 km
500 to 1000 ft
800 to 1500m
200 to 500 ft
< 800m
< 200 ft
Symbols :   Thunderstorms  Fog  Heavy snow  Heavy precipitations  Wind > 20 kt






- Airport Elevation : 2165 ft
- IATA code : AVL


KAVL - Asheville Regional

CURRENT METAR :
  • 271654Z 17005KT 10SM SCT120 12/04 A3003 RMK AO2 SLP162 T01170044

EXPIRED METARs :
  • 271554Z 36004KT 10SM BKN120 11/04 A3003 RMK AO2 SLP163 T01060039
  • 271454Z 35007KT 10SM BKN120 09/04 A3002 RMK AO2 SLP160 T00940039 58006

TAF KAVL
Valid from the 27 at 18:00 until the 28 at 18:00 UTC


271735Z 2718/2818 17005KT P6SM SCT120
FM272200 21007KT P6SM VCSH BKN060
FM280100 31009G16KT 4SM -SHRA BR OVC011
FM280200 32012G20KT 6SM -SHRA BR OVC007
FM280400 33016G27KT 4SM -SHRASN BR BKN025
FM280700 34020G35KT P6SM BKN022
PROB30 2807/2809 4SM -SHSN BR OVC010
KZTL FIR / North America



MET'MAP, your aeronautical weather chart ! - Copyright ORBIFLY December 2007 - Disclaimer

ORBIFLY MET'MAP TEAM :

Programming & Development : Alexandra Zaïnal
Concept & original design : Baudouin d'Aumeries
Assistance for programming : Marc-Olivier Méhu
Technical & hardware support : Manuel Goepfert

Contact : metmap@orbifly.com




SOURCES & CREDITS :

   NOAA       Earth
Advisory